createdAt,value
2019-04-30T07:05:48.630Z,4.63
2019-04-30T07:11:11.273Z,5.03
2019-04-30T07:16:13.727Z,5.63
2019-04-30T07:21:19.542Z,8.80
2019-04-30T07:26:24.679Z,7.27
2019-04-30T07:31:29.404Z,6.47
2019-04-30T07:36:45.834Z,5.03
2019-04-30T07:41:37.009Z,6.70
2019-04-30T07:46:41.177Z,5.07
2019-04-30T07:51:44.570Z,6.57
2019-04-30T07:56:50.469Z,6.43
2019-04-30T08:02:06.654Z,3.20
2019-04-30T08:06:59.554Z,3.63
2019-04-30T08:12:02.130Z,3.17
2019-04-30T08:17:04.703Z,5.57
2019-04-30T08:22:06.892Z,9.67
2019-04-30T08:27:09.759Z,6.20
2019-04-30T08:32:12.812Z,4.17
2019-04-30T08:37:19.616Z,3.73
2019-04-30T08:42:30.807Z,3.20
2019-04-30T08:47:24.793Z,6.67
2019-04-30T08:52:27.558Z,4.40
2019-04-30T08:57:29.810Z,6.00
2019-04-30T09:02:32.401Z,3.60
2019-04-30T09:07:35.001Z,6.57
2019-04-30T09:12:37.278Z,4.80
2019-04-30T09:17:40.066Z,6.87
2019-04-30T09:22:42.703Z,3.57
2019-04-30T09:27:45.194Z,11.40
2019-04-30T09:32:49.950Z,3.27
2019-04-30T09:37:58.924Z,3.17
2019-04-30T09:42:58.543Z,6.03
2019-04-30T09:48:01.559Z,4.13
2019-04-30T09:53:04.274Z,5.27
2019-04-30T09:58:16.191Z,3.87
2019-04-30T10:03:12.689Z,4.23
2019-04-30T10:08:15.868Z,2.60
2019-04-30T10:13:18.320Z,3.53
2019-04-30T10:18:21.454Z,3.10
2019-04-30T10:23:24.661Z,3.27
2019-04-30T10:28:28.311Z,4.57
2019-04-30T10:33:30.868Z,3.93
2019-04-30T10:38:33.206Z,6.37
2019-04-30T10:43:36.632Z,6.00
2019-04-30T10:48:38.855Z,6.50
2019-04-30T10:53:41.328Z,3.27
2019-04-30T10:58:43.767Z,6.50
2019-04-30T11:03:46.508Z,5.13
2019-04-30T11:08:49.514Z,3.97
2019-04-30T11:13:52.062Z,4.10
2019-04-30T11:18:55.078Z,7.90
2019-04-30T11:23:59.487Z,3.50
2019-04-30T11:29:02.327Z,7.60
2019-04-30T11:34:06.075Z,3.97
2019-04-30T11:39:14.536Z,6.60
2019-04-30T11:44:35.984Z,6.80
2019-04-30T11:49:21.843Z,7.60
2019-04-30T11:54:25.013Z,5.13
2019-04-30T11:59:29.783Z,4.50
2019-04-30T12:04:32.156Z,3.67
2019-04-30T12:09:54.430Z,6.80
2019-04-30T12:14:59.589Z,5.03
2019-04-30T12:20:01.670Z,4.30
2019-04-30T12:25:05.464Z,6.20
2019-04-30T12:30:09.465Z,4.33
2019-04-30T12:35:13.117Z,6.77
2019-04-30T12:40:26.646Z,3.67
2019-04-30T12:45:20.540Z,4.77
2019-04-30T12:50:39.575Z,5.37
2019-04-30T12:55:49.079Z,5.57
2019-04-30T13:00:51.716Z,4.23
2019-04-30T13:05:55.952Z,9.43
2019-04-30T13:10:59.527Z,7.17
2019-04-30T13:16:02.119Z,5.27
2019-04-30T13:21:04.768Z,3.50
2019-04-30T13:26:08.929Z,5.07
2019-04-30T13:31:11.388Z,3.40
2019-04-30T13:36:14.395Z,4.90
2019-04-30T13:41:36.813Z,6.63
2019-04-30T13:46:39.626Z,7.20
2019-04-30T13:51:42.994Z,6.43
2019-04-30T13:56:46.277Z,5.50
2019-04-30T14:01:48.993Z,5.37
2019-04-30T14:07:00.983Z,5.87
2019-04-30T14:12:03.795Z,3.73
2019-04-30T14:17:06.073Z,4.03
2019-04-30T14:22:09.063Z,6.83
2019-04-30T14:27:12.495Z,6.07
2019-04-30T14:32:15.220Z,6.50
2019-04-30T14:37:18.095Z,3.90
2019-04-30T14:42:22.006Z,5.47
2019-04-30T14:47:50.083Z,5.90
2019-04-30T14:53:01.466Z,6.97
2019-04-30T14:58:16.486Z,3.90
2019-04-30T15:03:20.019Z,6.30
2019-04-30T15:08:22.678Z,7.33
2019-04-30T15:13:25.485Z,6.43
2019-04-30T15:18:29.009Z,4.90
2019-04-30T15:23:58.781Z,3.47
2019-04-30T15:28:57.258Z,4.53
2019-04-30T15:34:13.099Z,3.63
2019-04-30T15:39:33.782Z,3.73
2019-04-30T15:44:40.181Z,4.53
2019-04-30T15:49:41.436Z,6.37
2019-04-30T15:54:44.417Z,6.00
2019-04-30T15:59:48.214Z,3.90
2019-04-30T16:05:08.756Z,3.23
2019-04-30T16:10:30.133Z,3.90
2019-04-30T16:15:32.495Z,4.37
2019-04-30T16:20:35.193Z,6.90
2019-04-30T16:25:39.036Z,3.30
2019-04-30T16:30:42.975Z,5.60
2019-04-30T16:35:45.338Z,5.13
2019-04-30T16:40:48.868Z,3.73
2019-04-30T16:45:51.646Z,3.13
2019-04-30T16:50:54.319Z,3.53
2019-04-30T16:55:58.621Z,4.30
2019-04-30T17:01:04.272Z,2.87
2019-04-30T17:06:13.139Z,4.30
2019-04-30T17:11:35.039Z,3.40
2019-04-30T17:16:39.142Z,5.73
2019-04-30T17:21:42.225Z,3.43
2019-04-30T17:26:45.126Z,3.50
2019-04-30T17:31:47.704Z,6.97
2019-04-30T17:36:51.186Z,4.23
2019-04-30T17:41:53.623Z,4.33
2019-04-30T17:46:55.775Z,3.50
2019-04-30T17:51:59.203Z,4.17
2019-04-30T17:57:02.058Z,7.07
2019-04-30T18:02:06.557Z,5.80
2019-04-30T18:07:10.103Z,6.03
2019-04-30T18:12:12.524Z,4.63
2019-04-30T18:17:15.196Z,4.73
2019-04-30T18:22:37.353Z,11.03
2019-04-30T18:27:49.621Z,4.93
2019-04-30T18:32:52.025Z,14.30
2019-04-30T18:37:54.883Z,11.77
2019-04-30T18:42:59.294Z,6.90
2019-04-30T18:48:01.854Z,5.33
2019-04-30T18:53:10.363Z,5.57
2019-04-30T18:58:12.868Z,7.63
2019-04-30T19:03:19.130Z,7.43
2019-04-30T19:08:35.381Z,6.97
2019-04-30T19:14:00.619Z,9.30
2019-04-30T19:19:09.739Z,9.47
2019-04-30T19:24:13.511Z,11.73
2019-04-30T19:29:15.931Z,12.00
2019-04-30T19:34:18.908Z,11.90
2019-04-30T19:39:21.064Z,9.73
2019-04-30T19:44:23.984Z,15.47
2019-04-30T19:49:26.875Z,12.07
2019-04-30T19:54:29.872Z,11.13
2019-04-30T19:59:32.885Z,14.83
2019-04-30T20:04:36.443Z,20.20
2019-04-30T20:09:39.215Z,13.63
2019-04-30T20:14:41.434Z,16.83
2019-04-30T20:19:44.152Z,16.33
2019-04-30T20:24:46.866Z,11.80
2019-04-30T20:29:51.709Z,13.93
2019-04-30T20:34:53.567Z,10.07
2019-04-30T20:40:03.633Z,11.80
2019-04-30T20:45:08.981Z,10.10
2019-04-30T20:50:12.723Z,16.57
2019-04-30T20:55:15.450Z,9.07
2019-04-30T21:00:18.012Z,10.57
2019-04-30T21:05:20.656Z,12.37
2019-04-30T21:10:22.853Z,13.63
2019-04-30T21:15:25.129Z,16.93
2019-04-30T21:20:28.853Z,9.57
2019-04-30T21:25:32.294Z,11.73
2019-04-30T21:30:35.320Z,11.50
2019-04-30T21:35:43.975Z,11.73
2019-04-30T21:40:46.931Z,9.33
2019-04-30T21:45:49.576Z,11.63
2019-04-30T21:50:51.972Z,13.00
2019-04-30T21:55:54.159Z,11.13
2019-04-30T22:01:22.635Z,15.00
2019-04-30T22:06:25.343Z,14.30
2019-04-30T22:11:29.663Z,12.17
2019-04-30T22:16:32.137Z,14.37
2019-04-30T22:21:34.590Z,12.50
2019-04-30T22:26:36.733Z,14.70
2019-04-30T22:31:39.720Z,11.50
2019-04-30T22:36:46.077Z,12.70
2019-04-30T22:41:48.511Z,11.30
2019-04-30T22:46:50.992Z,11.37
2019-04-30T22:51:53.263Z,10.67
2019-04-30T22:56:56.048Z,10.43
2019-04-30T23:02:20.403Z,9.87
2019-04-30T23:07:22.672Z,10.37
2019-04-30T23:12:25.149Z,10.83
2019-04-30T23:17:27.883Z,10.23
2019-04-30T23:22:30.722Z,8.87
2019-04-30T23:27:33.008Z,9.77
2019-04-30T23:32:35.731Z,10.47
2019-04-30T23:37:39.572Z,10.47
2019-04-30T23:42:42.086Z,10.03
2019-04-30T23:47:44.573Z,11.47
2019-04-30T23:52:46.946Z,9.50
2019-04-30T23:57:49.158Z,9.40
